Saint Bonnet de Bellac- Haute Vienne - France
Donnes mto: mardi, 25/10/2011
Date Horaire Temp. E. Hum. E. P.atmo. Pluie Vent Direction Direction Ensoleilleme Solaire P. de rose Temp au vent Rafales
25/10/2011 12:40 13,4 C 85 % 1001,7 hPa 0,0 mm 4,7 km/h (1 Bft) S-SO 202 0 min 0 W/m 10,9 C 13,4 C 4,7 km/h (1 Bft)
25/10/2011 12:45 13,7 C 84 % 1001,8 hPa 0,0 mm 4,3 km/h (1 Bft) SO 225 0 min 0 W/m 11,0 C 13,7 C 6,1 km/h (2 Bft)
25/10/2011 12:50 13,9 C 83 % 1001,7 hPa 0,0 mm 3,6 km/h (1 Bft) S-SO 202 0 min 0 W/m 11,1 C 13,9 C 4,0 km/h (1 Bft)
25/10/2011 12:55 13,9 C 82 % 1001,8 hPa 0,0 mm 4,7 km/h (1 Bft) SO 225 0 min 0 W/m 10,9 C 13,9 C 4,7 km/h (1 Bft)
25/10/2011 13:00 13,9 C 82 % 1001,8 hPa 0,0 mm 11,2 km/h (2 Bft) SO 225 0 min 0 W/m 10,9 C 13,9 C 15,8 km/h (3 Bft)
25/10/2011 13:05 13,8 C 82 % 1001,7 hPa 0,0 mm 8,3 km/h (2 Bft) S-SE 157 0 min 0 W/m 10,8 C 13,8 C 10,8 km/h (2 Bft)
25/10/2011 13:10 13,8 C 82 % 1001,8 hPa 0,0 mm 2,5 km/h (1 Bft) S 180 0 min 0 W/m 10,8 C 13,8 C 2,5 km/h (1 Bft)
25/10/2011 13:15 13,7 C 82 % 1001,8 hPa 0,0 mm 6,1 km/h (2 Bft) S-SO 202 0 min 0 W/m 10,7 C 13,7 C 7,9 km/h (2 Bft)
25/10/2011 13:20 13,6 C 83 % 1001,7 hPa 0,0 mm 2,5 km/h (1 Bft) S-SO 202 0 min 0 W/m 10,8 C 13,6 C 7,6 km/h (2 Bft)
25/10/2011 13:25 13,8 C 83 % 1001,7 hPa 0,0 mm 5,8 km/h (2 Bft) S 180 0 min 0 W/m 11,0 C 13,8 C 6,1 km/h (2 Bft)
25/10/2011 13:30 13,9 C 82 % 1001,6 hPa 0,0 mm 2,2 km/h (1 Bft) S-SO 202 0 min 0 W/m 10,9 C 13,9 C 4,0 km/h (1 Bft)
25/10/2011 13:35 14,1 C 81 % 1001,6 hPa 0,0 mm 4,7 km/h (1 Bft) S-SO 202 0 min 0 W/m 10,9 C 14,1 C 6,8 km/h (2 Bft)
25/10/2011 13:40 14,3 C 80 % 1001,5 hPa 0,0 mm 5,8 km/h (2 Bft) O-SO 247 0 min 0 W/m 10,9 C 14,3 C 7,6 km/h (2 Bft)
25/10/2011 13:45 14,4 C 79 % 1001,5 hPa 0,0 mm 1,4 km/h (1 Bft) SO 225 0 min 0 W/m 10,8 C 14,4 C 4,3 km/h (1 Bft)
25/10/2011 13:50 14,6 C 78 % 1001,5 hPa 0,0 mm 5,4 km/h (2 Bft) S-SO 202 0 min 0 W/m 10,8 C 14,6 C 11,2 km/h (2 Bft)
25/10/2011 13:55 14,6 C 76 % 1001,5 hPa 0,0 mm 4,7 km/h (1 Bft) SO 225 0 min 0 W/m 10,4 C 14,6 C 6,8 km/h (2 Bft)
25/10/2011 14:00 14,4 C 76 % 1001,3 hPa 0,0 mm 5,0 km/h (1 Bft) S-SE 157 0 min 0 W/m 10,2 C 14,4 C 8,6 km/h (2 Bft)
25/10/2011 14:05 14,2 C 76 % 1001,3 hPa 0,0 mm 5,0 km/h (1 Bft) S-SO 202 0 min 0 W/m 10,0 C 14,2 C 9,4 km/h (2 Bft)
25/10/2011 14:10 13,9 C 77 % 1001,1 hPa 0,0 mm 5,8 km/h (2 Bft) SO 225 0 min 0 W/m 9,9 C 13,9 C 7,9 km/h (2 Bft)
25/10/2011 14:15 13,5 C 75 % 1001,6 hPa 0,8 mm 13,3 km/h (3 Bft) O 270 0 min 0 W/m 9,2 C 13,5 C 20,2 km/h (4 Bft)
25/10/2011 14:20 12,4 C 76 % 1001,8 hPa 2,1 mm 5,4 km/h (2 Bft) O 270 0 min 0 W/m 8,3 C 12,4 C 13,0 km/h (3 Bft)
25/10/2011 14:25 11,3 C 80 % 1001,9 hPa 0,0 mm 5,4 km/h (2 Bft) S-SO 202 0 min 0 W/m 8,0 C 11,3 C 9,7 km/h (2 Bft)
25/10/2011 14:30 10,6 C 83 % 1002,0 hPa 0,0 mm 4,3 km/h (1 Bft) SO 225 0 min 0 W/m 7,8 C 10,6 C 7,6 km/h (2 Bft)
25/10/2011 14:35 10,3 C 86 % 1002,2 hPa 0,3 mm 11,9 km/h (2 Bft) S-SO 202 0 min 0 W/m 8,1 C 10,3 C 18,0 km/h (3 Bft)
25/10/2011 14:40 9,9 C 86 % 1002,5 hPa 0,0 mm 10,4 km/h (2 Bft) S 180 0 min 0 W/m 7,7 C 8,4 C 22,3 km/h (4 Bft)
25/10/2011 14:45 9,6 C 85 % 1002,5 hPa 0,0 mm 5,4 km/h (2 Bft) SO 225 0 min 0 W/m 7,2 C 9,2 C 5,4 km/h (2 Bft)
25/10/2011 14:50 9,4 C 86 % 1002,5 hPa 0,0 mm 2,9 km/h (1 Bft) SO 225 0 min 0 W/m 7,2 C 9,4 C 6,1 km/h (2 Bft)
25/10/2011 14:55 9,2 C 86 % 1002,7 hPa 0,0 mm 2,5 km/h (1 Bft) O-SO 247 0 min 0 W/m 7,0 C 9,2 C 3,6 km/h (1 Bft)
25/10/2011 15:00 8,9 C 87 % 1002,9 hPa 0,5 mm 10,1 km/h (2 Bft) SO 225 0 min 0 W/m 6,9 C 7,3 C 22,3 km/h (4 Bft)
25/10/2011 15:05 8,8 C 87 % 1003,0 hPa 0,5 mm 7,2 km/h (2 Bft) S-SO 202 0 min 0 W/m 6,8 C 7,8 C 7,2 km/h (2 Bft)
25/10/2011 15:10 8,6 C 89 % 1003,0 hPa 0,5 mm 6,8 km/h (2 Bft) SO 225 0 min 0 W/m 6,9 C 7,6 C 11,2 km/h (2 Bft)
25/10/2011 15:15 8,5 C 89 % 1003,0 hPa 0,3 mm 5,0 km/h (1 Bft) O-SO 247 0 min 0 W/m 6,8 C 8,1 C 7,6 km/h (2 Bft)
25/10/2011 15:20 8,4 C 90 % 1002,9 hPa 0,0 mm 4,7 km/h (1 Bft) S-SO 202 0 min 0 W/m 6,9 C 8,0 C 7,2 km/h (2 Bft)
25/10/2011 15:25 8,4 C 91 % 1003,0 hPa 0,0 mm 4,7 km/h (1 Bft) S 180 0 min 0 W/m 7,0 C 8,0 C 4,7 km/h (1 Bft)
25/10/2011 15:30 8,6 C 91 % 1003,0 hPa 0,0 mm 6,1 km/h (2 Bft) SO 225 0 min 0 W/m 7,2 C 7,8 C 9,4 km/h (2 Bft)
25/10/2011 15:35 8,9 C 92 % 1003,0 hPa 0,0 mm 4,7 km/h (1 Bft) SO 225 0 min 0 W/m 7,7 C 8,6 C 7,6 km/h (2 Bft)
25/10/2011 15:40 9,2 C 92 % 1003,0 hPa 0,0 mm 4,3 km/h (1 Bft) S 180 0 min 0 W/m 8,0 C 9,2 C 8,3 km/h (2 Bft)
25/10/2011 15:45 9,5 C 92 % 1003,0 hPa 0,0 mm 5,4 km/h (2 Bft) S-SO 202 0 min 0 W/m 8,3 C 9,1 C 7,6 km/h (2 Bft)
25/10/2011 15:50 9,6 C 91 % 1003,2 hPa 0,0 mm 5,0 km/h (1 Bft) SO 225 0 min 0 W/m 8,2 C 9,3 C 10,8 km/h (2 Bft)
25/10/2011 15:55 9,8 C 91 % 1003,1 hPa 0,0 mm 6,1 km/h (2 Bft) SO 225 0 min 0 W/m 8,4 C 9,2 C 8,3 km/h (2 Bft)
25/10/2011 16:00 9,9 C 90 % 1003,1 hPa 0,0 mm 6,1 km/h (2 Bft) O-SO 247 0 min 0 W/m 8,3 C 9,3 C 7,2 km/h (2 Bft)
25/10/2011 16:05 9,9 C 90 % 1003,2 hPa 0,0 mm 5,4 km/h (2 Bft) SO 225 0 min 0 W/m 8,3 C 9,5 C 9,0 km/h (2 Bft)
25/10/2011 16:10 9,9 C 90 % 1003,2 hPa 0,0 mm 4,0 km/h (1 Bft) S 180 0 min 0 W/m 8,3 C 9,9 C 8,3 km/h (2 Bft)
25/10/2011 16:15 10,0 C 90 % 1003,3 hPa 0,0 mm 4,3 km/h (1 Bft) SO 225 0 min 0 W/m 8,4 C 10,0 C 9,4 km/h (2 Bft)
25/10/2011 16:20 10,0 C 90 % 1003,3 hPa 0,3 mm 3,2 km/h (1 Bft) SO 225 0 min 0 W/m 8,4 C 10,0 C 6,8 km/h (2 Bft)
25/10/2011 16:25 10,0 C 90 % 1003,3 hPa 0,0 mm 5,4 km/h (2 Bft) SO 225 0 min 0 W/m 8,4 C 9,6 C 8,6 km/h (2 Bft)
25/10/2011 16:30 10,1 C 90 % 1003,4 hPa 0,0 mm 3,2 km/h (1 Bft) S-SO 202 0 min 0 W/m 8,5 C 10,1 C 4,3 km/h (1 Bft)
25/10/2011 16:35 10,2 C 90 % 1003,4 hPa 0,0 mm 3,2 km/h (1 Bft) S-SO 202 0 min 0 W/m 8,6 C 10,2 C 6,8 km/h (2 Bft)
25/10/2011 16:40 10,3 C 90 % 1003,4 hPa 0,0 mm 9,0 km/h (2 Bft) S-SO 202 0 min 0 W/m 8,7 C 10,3 C 11,5 km/h (2 Bft)
25/10/2011 16:45 10,4 C 90 % 1003,3 hPa 0,0 mm 4,7 km/h (1 Bft) S 180 0 min 0 W/m 8,8 C 10,4 C 7,9 km/h (2 Bft)
25/10/2011 16:50 10,4 C 89 % 1003,4 hPa 0,0 mm 7,9 km/h (2 Bft) S 180 0 min 0 W/m 8,7 C 10,4 C 8,6 km/h (2 Bft)
25/10/2011 16:55 10,4 C 88 % 1003,4 hPa 0,0 mm 3,6 km/h (1 Bft) S-SO 202 0 min 0 W/m 8,5 C 10,4 C 6,8 km/h (2 Bft)
25/10/2011 17:00 10,5 C 89 % 1003,4 hPa 0,0 mm 7,2 km/h (2 Bft) S-SO 202 0 min 0 W/m 8,8 C 10,5 C 13,7 km/h (3 Bft)
25/10/2011 17:05 10,6 C 87 % 1003,3 hPa 0,0 mm 9,7 km/h (2 Bft) S-SO 202 0 min 0 W/m 8,5 C 10,6 C 16,9 km/h (3 Bft)
25/10/2011 17:10 10,8 C 87 % 1003,2 hPa 0,0 mm 3,6 km/h (1 Bft) S-SO 202 0 min 0 W/m 8,7 C 10,8 C 7,9 km/h (2 Bft)
25/10/2011 17:15 10,8 C 86 % 1003,3 hPa 0,0 mm 5,8 km/h (2 Bft) SO 225 0 min 0 W/m 8,6 C 10,8 C 7,2 km/h (2 Bft)
25/10/2011 17:20 10,9 C 86 % 1003,3 hPa 0,0 mm 5,0 km/h (1 Bft) S 180 0 min 0 W/m 8,7 C 10,9 C 11,2 km/h (2 Bft)
25/10/2011 17:25 10,9 C 85 % 1003,3 hPa 0,0 mm 7,9 km/h (2 Bft) SO 225 0 min 0 W/m 8,5 C 10,9 C 10,4 km/h (2 Bft)
25/10/2011 17:30 11,1 C 85 % 1003,5 hPa 0,0 mm 7,9 km/h (2 Bft) SO 225 0 min 0 W/m 8,7 C 11,1 C 7,9 km/h (2 Bft)
25/10/2011 17:35 11,0 C 84 % 1003,5 hPa 0,0 mm 8,3 km/h (2 Bft) SO 225 0 min 0 W/m 8,4 C 11,0 C 8,3 km/h (2 Bft)
25/10/2011 17:40 10,9 C 84 % 1003,6 hPa 0,0 mm 6,8 km/h (2 Bft) S 180 0 min 0 W/m 8,3 C 10,9 C 13,7 km/h (3 Bft)
25/10/2011 17:45 10,9 C 83 % 1003,7 hPa 0,0 mm 7,2 km/h (2 Bft) SO 225 0 min 0 W/m 8,1 C 10,9 C 7,9 km/h (2 Bft)
25/10/2011 17:50 10,9 C 84 % 1003,7 hPa 0,0 mm 9,4 km/h (2 Bft) S-SO 202 0 min 0 W/m 8,3 C 10,9 C 9,4 km/h (2 Bft)
25/10/2011 17:55 10,9 C 83 % 1003,8 hPa 0,0 mm 7,6 km/h (2 Bft) O-SO 247 0 min 0 W/m 8,1 C 10,9 C 8,6 km/h (2 Bft)
25/10/2011 18:00 10,8 C 83 % 1003,9 hPa 0,0 mm 9,0 km/h (2 Bft) S-SO 202 0 min 0 W/m 8,0 C 10,8 C 12,2 km/h (2 Bft)
25/10/2011 18:05 10,6 C 84 % 1004,0 hPa 0,0 mm 5,4 km/h (2 Bft) S-SO 202 0 min 0 W/m 8,0 C 10,6 C 8,6 km/h (2 Bft)
25/10/2011 18:10 10,4 C 84 % 1004,0 hPa 0,0 mm 3,2 km/h (1 Bft) S 180 0 min 0 W/m 7,8 C 10,4 C 6,5 km/h (2 Bft)
25/10/2011 18:15 10,3 C 85 % 1004,2 hPa 0,0 mm 7,9 km/h (2 Bft) S-SO 202 0 min 0 W/m 7,9 C 10,3 C 10,1 km/h (2 Bft)
25/10/2011 18:20 10,1 C 85 % 1004,3 hPa 0,0 mm 3,6 km/h (1 Bft) O-SO 247 0 min 0 W/m 7,7 C 10,1 C 7,6 km/h (2 Bft)
25/10/2011 18:25 10,0 C 85 % 1004,3 hPa 0,0 mm 8,6 km/h (2 Bft) S-SO 202 0 min 0 W/m 7,6 C 8,9 C 10,4 km/h (2 Bft)
25/10/2011 18:30 9,9 C 86 % 1004,5 hPa 0,0 mm 10,4 km/h (2 Bft) S 180 0 min 0 W/m 7,7 C 8,4 C 17,3 km/h (3 Bft)
25/10/2011 18:35 9,8 C 86 % 1004,6 hPa 0,0 mm 7,6 km/h (2 Bft) S-SO 202 0 min 0 W/m 7,6 C 8,9 C 12,2 km/h (2 Bft)
25/10/2011 18:40 9,8 C 86 % 1004,6 hPa 0,0 mm 5,0 km/h (1 Bft) O-SO 247 0 min 0 W/m 7,6 C 9,5 C 9,7 km/h (2 Bft)
25/10/2011 18:45 9,7 C 86 % 1004,7 hPa 0,0 mm 6,1 km/h (2 Bft) S-SO 202 0 min 0 W/m 7,5 C 9,1 C 7,2 km/h (2 Bft)
25/10/2011 18:50 9,6 C 87 % 1004,8 hPa 0,0 mm 3,2 km/h (1 Bft) S-SO 202 0 min 0 W/m 7,5 C 9,6 C 6,5 km/h (2 Bft)
25/10/2011 18:55 9,5 C 87 % 1004,9 hPa 0,0 mm 5,4 km/h (2 Bft) S-SO 202 0 min 0 W/m 7,4 C 9,1 C 7,2 km/h (2 Bft)
25/10/2011 19:00 9,4 C 87 % 1004,9 hPa 0,0 mm 6,5 km/h (2 Bft) S 180 0 min 0 W/m 7,3 C 8,7 C 9,7 km/h (2 Bft)
25/10/2011 19:05 9,4 C 87 % 1005,0 hPa 0,0 mm 2,9 km/h (1 Bft) S-SO 202 0 min 0 W/m 7,3 C 9,4 C 5,8 km/h (2 Bft)
25/10/2011 19:10 9,4 C 88 % 1005,1 hPa 0,0 mm 7,6 km/h (2 Bft) S 180 0 min 0 W/m 7,5 C 8,4 C 12,2 km/h (2 Bft)
25/10/2011 19:15 9,4 C 88 % 1005,2 hPa 0,0 mm 4,0 km/h (1 Bft) S-SO 202 0 min 0 W/m 7,5 C 9,4 C 8,6 km/h (2 Bft)
25/10/2011 19:20 9,4 C 87 % 1005,3 hPa 0,0 mm 4,7 km/h (1 Bft) S 180 0 min 0 W/m 7,3 C 9,2 C 7,2 km/h (2 Bft)
25/10/2011 19:25 9,3 C 87 % 1005,2 hPa 0,0 mm 6,5 km/h (2 Bft) S-SO 202 0 min 0 W/m 7,2 C 8,5 C 6,8 km/h (2 Bft)
25/10/2011 19:30 9,3 C 88 % 1005,3 hPa 0,0 mm 6,1 km/h (2 Bft) O-SO 247 0 min 0 W/m 7,4 C 8,6 C 9,4 km/h (2 Bft)
25/10/2011 19:35 9,2 C 88 % 1005,3 hPa 0,0 mm 6,1 km/h (2 Bft) S-SO 202 0 min 0 W/m 7,3 C 8,5 C 7,9 km/h (2 Bft)
25/10/2011 19:40 9,1 C 88 % 1005,4 hPa 0,0 mm 5,0 km/h (1 Bft) SO 225 0 min 0 W/m 7,2 C 8,7 C 8,6 km/h (2 Bft)
25/10/2011 19:45 9,1 C 89 % 1005,4 hPa 0,0 mm 6,5 km/h (2 Bft) SO 225 0 min 0 W/m 7,4 C 8,3 C 8,6 km/h (2 Bft)
25/10/2011 19:50 9,1 C 89 % 1005,5 hPa 0,0 mm 5,8 km/h (2 Bft) O-SO 247 0 min 0 W/m 7,4 C 8,5 C 7,9 km/h (2 Bft)
25/10/2011 19:55 9,1 C 89 % 1005,6 hPa 0,0 mm 5,8 km/h (2 Bft) S 180 0 min 0 W/m 7,4 C 8,5 C 7,9 km/h (2 Bft)
25/10/2011 20:00 9,1 C 89 % 1005,7 hPa 0,0 mm 7,6 km/h (2 Bft) O-SO 247 0 min 0 W/m 7,4 C 8,0 C 13,0 km/h (3 Bft)
25/10/2011 20:05 9,1 C 89 % 1005,8 hPa 0,0 mm 6,5 km/h (2 Bft) S-SO 202 0 min 0 W/m 7,4 C 8,3 C 11,5 km/h (2 Bft)
25/10/2011 20:10 9,1 C 89 % 1005,8 hPa 0,0 mm 8,6 km/h (2 Bft) S 180 0 min 0 W/m 7,4 C 7,8 C 14,0 km/h (3 Bft)
25/10/2011 20:15 9,1 C 89 % 1004,8 hPa 0,0 mm 4,7 km/h (1 Bft) S-SO 202 0 min 0 W/m 7,4 C 8,8 C 6,1 km/h (2 Bft)
25/10/2011 20:20 9,1 C 89 % 1005,0 hPa 0,0 mm 12,6 km/h (3 Bft) S 180 0 min 0 W/m 7,4 C 7,1 C 21,6 km/h (4 Bft)
25/10/2011 20:25 9,1 C 89 % 1005,2 hPa 0,0 mm 7,2 km/h (2 Bft) SO 225 0 min 0 W/m 7,4 C 8,1 C 7,2 km/h (2 Bft)
25/10/2011 20:30 8,9 C 89 % 1005,2 hPa 0,0 mm 7,2 km/h (2 Bft) SE 135 0 min 0 W/m 7,2 C 7,9 C 7,9 km/h (2 Bft)
25/10/2011 20:35 8,9 C 89 % 1005,3 hPa 0,0 mm 6,5 km/h (2 Bft) SO 225 0 min 0 W/m 7,2 C 8,1 C 11,2 km/h (2 Bft)
25/10/2011 20:40 8,9 C 89 % 1005,3 hPa 0,0 mm 7,6 km/h (2 Bft) SO 225 0 min 0 W/m 7,2 C 7,8 C 10,1 km/h (2 Bft)
25/10/2011 20:45 9,1 C 89 % 1005,4 hPa 0,0 mm 5,8 km/h (2 Bft) SO 225 0 min 0 W/m 7,4 C 8,5 C 10,8 km/h (2 Bft)
25/10/2011 20:50 9,1 C 89 % 1005,4 hPa 0,0 mm 7,6 km/h (2 Bft) SO 225 0 min 0 W/m 7,4 C 8,0 C 13,3 km/h (3 Bft)
25/10/2011 20:55 9,1 C 89 % 1005,4 hPa 0,0 mm 9,4 km/h (2 Bft) SO 225 0 min 0 W/m 7,4 C 7,7 C 10,4 km/h (2 Bft)
25/10/2011 21:00 9,1 C 88 % 1005,5 hPa 0,0 mm 7,2 km/h (2 Bft) SO 225 0 min 0 W/m 7,2 C 8,1 C 10,4 km/h (2 Bft)
25/10/2011 21:05 9,1 C 88 % 1005,5 hPa 0,0 mm 10,1 km/h (2 Bft) SO 225 0 min 0 W/m 7,2 C 7,5 C 12,6 km/h (3 Bft)
25/10/2011 21:10 9,1 C 88 % 1005,6 hPa 0,0 mm 6,5 km/h (2 Bft) SO 225 0 min 0 W/m 7,2 C 8,3 C 9,4 km/h (2 Bft)
25/10/2011 21:15 9,1 C 88 % 1005,8 hPa 0,0 mm 5,8 km/h (2 Bft) S-SO 202 0 min 0 W/m 7,2 C 8,5 C 6,8 km/h (2 Bft)
25/10/2011 21:20 9,1 C 88 % 1005,7 hPa 0,0 mm 7,6 km/h (2 Bft) SO 225 0 min 0 W/m 7,2 C 8,0 C 10,4 km/h (2 Bft)
25/10/2011 21:25 9,1 C 88 % 1005,8 hPa 0,0 mm 5,4 km/h (2 Bft) SO 225 0 min 0 W/m 7,2 C 8,6 C 9,0 km/h (2 Bft)
25/10/2011 21:30 9,0 C 88 % 1006,0 hPa 0,0 mm 4,7 km/h (1 Bft) O 270 0 min 0 W/m 7,1 C 8,7 C 7,2 km/h (2 Bft)
25/10/2011 21:35 9,0 C 88 % 1006,1 hPa 0,0 mm 7,6 km/h (2 Bft) SO 225 0 min 0 W/m 7,1 C 7,9 C 7,6 km/h (2 Bft)
25/10/2011 21:40 9,1 C 88 % 1006,3 hPa 0,0 mm 9,4 km/h (2 Bft) SO 225 0 min 0 W/m 7,2 C 7,7 C 13,3 km/h (3 Bft)
25/10/2011 21:45 9,1 C 88 % 1006,4 hPa 0,0 mm 18,7 km/h (3 Bft) SO 225 0 min 0 W/m 7,2 C 6,4 C 26,6 km/h (4 Bft)
25/10/2011 21:50 9,3 C 87 % 1006,6 hPa 0,0 mm 6,5 km/h (2 Bft) SE 135 0 min 0 W/m 7,2 C 8,5 C 13,7 km/h (3 Bft)
25/10/2011 21:55 9,4 C 87 % 1006,7 hPa 0,0 mm 6,8 km/h (2 Bft) S-SO 202 0 min 0 W/m 7,3 C 8,6 C 6,8 km/h (2 Bft)
25/10/2011 22:00 9,4 C 87 % 1006,9 hPa 0,0 mm 7,2 km/h (2 Bft) SO 225 0 min 0 W/m 7,3 C 8,5 C 14,8 km/h (3 Bft)
25/10/2011 22:05 9,4 C 85 % 1006,8 hPa 0,0 mm 10,4 km/h (2 Bft) SO 225 0 min 0 W/m 7,0 C 7,8 C 18,7 km/h (3 Bft)
25/10/2011 22:10 9,4 C 84 % 1006,9 hPa 0,0 mm 7,2 km/h (2 Bft) O-SO 247 0 min 0 W/m 6,8 C 8,5 C 14,4 km/h (3 Bft)
25/10/2011 22:15 9,3 C 85 % 1006,9 hPa 0,3 mm 11,2 km/h (2 Bft) S-SO 202 0 min 0 W/m 6,9 C 7,6 C 13,0 km/h (3 Bft)
25/10/2011 22:20 9,1 C 86 % 1006,9 hPa 0,0 mm 10,8 km/h (2 Bft) SO 225 0 min 0 W/m 6,9 C 7,4 C 19,1 km/h (3 Bft)
25/10/2011 22:25 8,9 C 86 % 1007,0 hPa 0,0 mm 11,2 km/h (2 Bft) SO 225 0 min 0 W/m 6,7 C 7,1 C 20,2 km/h (4 Bft)
25/10/2011 22:30 8,8 C 87 % 1007,0 hPa 0,0 mm 11,9 km/h (2 Bft) S-SO 202 0 min 0 W/m 6,8 C 6,9 C 25,2 km/h (4 Bft)
25/10/2011 22:35 8,6 C 88 % 1006,9 hPa 0,0 mm 6,5 km/h (2 Bft) SO 225 0 min 0 W/m 6,7 C 7,7 C 7,9 km/h (2 Bft)
25/10/2011 22:40 8,5 C 88 % 1006,9 hPa 0,0 mm 9,4 km/h (2 Bft) S 180 0 min 0 W/m 6,6 C 7,0 C 10,4 km/h (2 Bft)
25/10/2011 22:45 8,4 C 89 % 1006,9 hPa 0,0 mm 8,3 km/h (2 Bft) S-SO 202 0 min 0 W/m 6,7 C 7,1 C 13,0 km/h (3 Bft)
25/10/2011 22:50 8,3 C 89 % 1006,8 hPa 0,3 mm 8,3 km/h (2 Bft) S-SO 202 0 min 0 W/m 6,6 C 6,9 C 13,0 km/h (3 Bft)
25/10/2011 22:55 8,3 C 89 % 1006,9 hPa 0,0 mm 7,2 km/h (2 Bft) SO 225 0 min 0 W/m 6,6 C 7,2 C 10,4 km/h (2 Bft)
25/10/2011 23:00 8,2 C 89 % 1007,9 hPa 0,0 mm 7,6 km/h (2 Bft) SO 225 0 min 0 W/m 6,5 C 7,0 C 9,7 km/h (2 Bft)
25/10/2011 23:05 8,1 C 89 % 1007,9 hPa 0,0 mm 8,6 km/h (2 Bft) S-SO 202 0 min 0 W/m 6,4 C 6,6 C 9,0 km/h (2 Bft)
25/10/2011 23:10 8,1 C 89 % 1007,9 hPa 0,0 mm 9,7 km/h (2 Bft) SO 225 0 min 0 W/m 6,4 C 6,4 C 13,7 km/h (3 Bft)
_ Min-Heure 23:10 14:15 14:10 - 13:45 - - - - 23:10 21:45 13:10
Minimum _ 8,1 C 75 % 1001,1 hPa - 1,4 km/h (1 Bft) - - - - 6,4 C 6,4 C 2,5 km/h (1 Bft)
_ Max-Heure 13:55 15:45 23:10 14:20 21:45 - - 23:10 23:10 12:50 13:55 21:45
Maximum _ 14,6 C 92 % 1007,9 hPa 2,1 mm 18,7 km/h
SO (3 Bft)
- - 0 min 0 W/m 11,1 C 14,6 C 26,6 km/h
SO (4 Bft)
Moyenne _ 10,7 C 86 % 1003,8 hPa #5,7 mm 6,3 km/h (2 Bft) SO - #0 min. 0 W/m 8,5 C 10,3 C 9,2 km/h (2 Bft)
Saint Bonnet de Bellac- Haute Vienne - France